createdAt,value
2022-09-07T00:01:46.569Z,6.55
2022-09-07T00:05:50.107Z,6.82
2022-09-07T00:09:52.077Z,6.95
2022-09-07T00:13:53.905Z,6.72
2022-09-07T00:17:55.763Z,6.60
2022-09-07T00:21:57.521Z,6.15
2022-09-07T00:26:19.944Z,6.93
2022-09-07T00:30:21.725Z,6.70
2022-09-07T00:34:23.485Z,6.50
2022-09-07T00:38:25.289Z,6.90
2022-09-07T00:42:27.045Z,7.43
2022-09-07T00:46:34.686Z,8.07
2022-09-07T00:50:49.994Z,8.50
2022-09-07T00:54:56.092Z,7.25
2022-09-07T00:58:58.944Z,7.50
2022-09-07T01:03:02.237Z,7.57
2022-09-07T01:07:05.540Z,8.15
2022-09-07T01:11:07.908Z,7.28
2022-09-07T01:15:10.137Z,6.68
2022-09-07T01:19:26.946Z,6.85
2022-09-07T01:24:00.537Z,7.18
2022-09-07T01:28:17.350Z,6.97
2022-09-07T01:32:43.117Z,7.50
2022-09-07T01:36:50.860Z,8.00
2022-09-07T01:41:12.417Z,6.53
2022-09-07T01:45:17.266Z,7.15
2022-09-07T01:49:25.994Z,7.18
2022-09-07T01:53:53.723Z,8.85
2022-09-07T01:58:06.686Z,8.40
2022-09-07T02:02:17.523Z,9.18
2022-09-07T02:06:38.807Z,10.05
2022-09-07T02:10:51.877Z,10.00
2022-09-07T02:15:00.145Z,9.77
2022-09-07T02:19:11.014Z,10.02
2022-09-07T02:23:35.093Z,9.43
2022-09-07T02:27:55.330Z,10.20
2022-09-07T02:31:57.106Z,11.05
2022-09-07T02:36:00.125Z,10.70
2022-09-07T02:40:02.558Z,10.40
2022-09-07T02:44:13.729Z,11.00
2022-09-07T02:48:36.138Z,11.32
2022-09-07T02:53:01.089Z,9.27
2022-09-07T02:57:21.308Z,10.60
2022-09-07T03:01:58.565Z,10.55
2022-09-07T03:06:03.510Z,10.90
2022-09-07T03:10:07.559Z,9.73
2022-09-07T03:14:24.061Z,10.90
2022-09-07T03:18:27.546Z,10.95
2022-09-07T03:22:31.253Z,11.05
2022-09-07T03:26:32.960Z,10.73
2022-09-07T03:30:34.771Z,10.90
2022-09-07T03:34:36.485Z,10.65
2022-09-07T03:38:38.355Z,10.82
2022-09-07T03:42:40.585Z,11.23
2022-09-07T03:46:42.453Z,11.00
2022-09-07T03:50:44.255Z,11.35
2022-09-07T03:54:46.317Z,10.18
2022-09-07T03:58:49.490Z,11.20
2022-09-07T04:02:51.291Z,10.63
2022-09-07T04:06:53.097Z,10.07
2022-09-07T04:10:59.892Z,10.73
2022-09-07T04:15:01.853Z,10.40
2022-09-07T04:19:04.867Z,11.25
2022-09-07T04:23:06.678Z,10.43
2022-09-07T04:27:10.572Z,12.15
2022-09-07T04:31:14.424Z,11.55
2022-09-07T04:35:16.330Z,11.38
2022-09-07T04:39:18.306Z,11.50
2022-09-07T04:43:20.044Z,11.25
2022-09-07T04:47:22.230Z,11.05
2022-09-07T04:51:26.820Z,9.95
2022-09-07T04:55:28.616Z,10.07
2022-09-07T04:59:30.454Z,10.57
2022-09-07T05:03:38.220Z,9.95
2022-09-07T05:07:40.079Z,8.93
2022-09-07T05:11:42.013Z,9.75
2022-09-07T05:15:43.884Z,11.73
2022-09-07T05:19:45.633Z,12.95
2022-09-07T05:23:51.163Z,9.80
2022-09-07T05:27:53.125Z,9.07
2022-09-07T05:31:55.033Z,9.23
2022-09-07T05:35:58.439Z,9.30
2022-09-07T05:40:00.437Z,8.38
2022-09-07T05:48:24.241Z,9.55
2022-09-07T05:52:26.029Z,8.48
2022-09-07T05:56:27.763Z,8.80
2022-09-07T06:00:29.688Z,8.45
2022-09-07T06:04:31.684Z,9.35
2022-09-07T06:08:35.963Z,9.05
2022-09-07T06:12:37.835Z,8.02
2022-09-07T06:16:40.179Z,7.63
2022-09-07T06:20:42.005Z,8.43
2022-09-07T06:24:43.771Z,8.15
2022-09-07T06:28:49.853Z,7.70
2022-09-07T06:32:53.315Z,6.40
2022-09-07T06:36:55.005Z,5.75
2022-09-07T06:45:23.559Z,5.13
2022-09-07T06:49:26.114Z,4.20
2022-09-07T06:53:34.205Z,4.00
2022-09-07T06:57:36.102Z,4.20
2022-09-07T07:01:37.842Z,3.90
2022-09-07T07:05:39.556Z,3.50
2022-09-07T07:09:42.030Z,2.85
2022-09-07T07:13:45.255Z,3.00
2022-09-07T07:17:53.203Z,3.08
2022-09-07T07:26:24.085Z,3.50
2022-09-07T07:30:26.150Z,3.08
2022-09-07T07:34:27.906Z,3.45
2022-09-07T07:42:52.598Z,3.00
2022-09-07T07:46:54.396Z,3.40
2022-09-07T07:51:11.870Z,3.42
2022-09-07T07:59:36.010Z,4.47
2022-09-07T08:03:40.415Z,4.65
2022-09-07T08:07:42.661Z,4.03
2022-09-07T08:11:44.844Z,5.03
2022-09-07T08:15:46.878Z,4.55
2022-09-07T08:19:48.876Z,5.50
2022-09-07T08:23:50.873Z,5.70
2022-09-07T08:27:52.749Z,5.30
2022-09-07T08:31:54.933Z,4.00
2022-09-07T08:36:00.673Z,4.03
2022-09-07T08:40:03.330Z,3.90
2022-09-07T08:44:29.662Z,3.75
2022-09-07T08:48:34.163Z,4.00
2022-09-07T08:52:46.754Z,3.60
2022-09-07T09:01:33.564Z,3.60
2022-09-07T09:05:49.792Z,3.47
2022-09-07T09:10:10.348Z,3.90
2022-09-07T09:14:15.033Z,3.08
2022-09-07T09:18:38.302Z,2.95
2022-09-07T09:22:40.130Z,3.28
2022-09-07T09:26:45.407Z,3.42
2022-09-07T09:30:50.366Z,2.75
2022-09-07T09:35:13.044Z,3.00
2022-09-07T09:39:32.281Z,3.30
2022-09-07T09:43:41.351Z,2.78
2022-09-07T09:47:50.755Z,2.42
2022-09-07T09:56:18.724Z,3.10
2022-09-07T10:00:30.359Z,3.30
2022-09-07T10:04:35.189Z,3.08
2022-09-07T10:08:40.344Z,3.45
2022-09-07T10:12:42.733Z,3.22
2022-09-07T10:16:45.159Z,2.80
2022-09-07T10:20:47.083Z,2.60
2022-09-07T10:24:48.864Z,3.10
2022-09-07T10:29:24.497Z,2.95
2022-09-07T10:33:41.826Z,3.00
2022-09-07T10:38:24.990Z,2.90
2022-09-07T10:42:33.605Z,2.50
2022-09-07T10:47:07.230Z,3.20
2022-09-07T10:51:37.354Z,2.90
2022-09-07T10:55:43.114Z,2.90
2022-09-07T11:00:11.524Z,2.88
2022-09-07T11:04:40.080Z,2.60
2022-09-07T11:09:16.521Z,3.88
2022-09-07T11:13:25.958Z,2.72
2022-09-07T11:17:30.095Z,2.90
2022-09-07T11:26:17.065Z,2.63
2022-09-07T11:30:28.002Z,2.67
2022-09-07T11:34:35.083Z,3.22
2022-09-07T11:38:53.285Z,2.38
2022-09-07T11:43:03.546Z,2.88
2022-09-07T11:47:20.862Z,3.35
2022-09-07T11:52:16.836Z,3.28
2022-09-07T11:56:25.979Z,2.50
2022-09-07T12:00:43.016Z,2.88
2022-09-07T12:05:04.044Z,2.20
2022-09-07T12:09:24.176Z,2.35
2022-09-07T12:14:07.430Z,3.03
2022-09-07T12:18:27.185Z,2.42
2022-09-07T12:22:28.942Z,2.80
2022-09-07T12:26:33.546Z,2.50
2022-09-07T12:30:35.273Z,2.53
2022-09-07T12:34:47.037Z,2.75
2022-09-07T12:39:21.817Z,2.30
2022-09-07T12:43:23.409Z,2.10
2022-09-07T12:47:30.392Z,2.47
2022-09-07T12:56:38.052Z,2.20
2022-09-07T13:00:55.122Z,2.00
2022-09-07T13:04:59.852Z,2.47
2022-09-07T13:09:33.546Z,2.10
2022-09-07T13:17:57.273Z,2.20
2022-09-07T13:21:58.958Z,2.33
2022-09-07T13:26:02.235Z,2.42
2022-09-07T13:30:22.514Z,2.10
2022-09-07T13:34:33.849Z,2.63
2022-09-07T13:38:36.744Z,2.20
2022-09-07T13:42:38.640Z,2.45
2022-09-07T13:46:54.335Z,2.10
2022-09-07T13:51:20.295Z,2.50
2022-09-07T13:55:34.281Z,2.05
2022-09-07T13:59:36.646Z,2.20
2022-09-07T14:03:59.925Z,2.25
2022-09-07T14:08:02.574Z,2.15
2022-09-07T14:12:13.484Z,2.42
2022-09-07T14:16:16.098Z,1.90
2022-09-07T14:20:18.877Z,1.92
2022-09-07T14:24:28.550Z,1.77
2022-09-07T14:28:32.571Z,2.30
2022-09-07T14:32:34.299Z,1.90
2022-09-07T14:36:45.751Z,1.90
2022-09-07T14:40:48.306Z,1.80
2022-09-07T14:44:51.497Z,1.83
2022-09-07T14:48:55.667Z,2.03
2022-09-07T14:57:19.355Z,1.90
2022-09-07T15:01:39.352Z,2.03
2022-09-07T15:05:48.547Z,1.83
2022-09-07T15:09:50.727Z,2.20
2022-09-07T15:14:17.015Z,2.30
2022-09-07T15:18:40.551Z,1.95
2022-09-07T15:22:42.733Z,1.55
2022-09-07T15:27:04.954Z,1.70
2022-09-07T15:35:28.657Z,1.90
2022-09-07T15:39:31.362Z,1.88
2022-09-07T15:43:33.318Z,1.92
2022-09-07T15:47:47.056Z,1.52
2022-09-07T15:52:05.702Z,5.53
2022-09-07T15:56:07.724Z,1.67
2022-09-07T16:00:10.346Z,6.93
2022-09-07T16:04:14.669Z,2.03
2022-09-07T16:08:25.229Z,3.67
2022-09-07T16:21:12.810Z,3.67
2022-09-07T16:25:14.621Z,2.30
2022-09-07T16:29:17.676Z,1.80
2022-09-07T16:33:19.583Z,1.98
2022-09-07T16:37:21.242Z,1.55
2022-09-07T16:41:29.103Z,1.90
2022-09-07T16:49:52.496Z,1.70
2022-09-07T16:53:56.160Z,2.30
2022-09-07T17:02:19.517Z,2.40
2022-09-07T17:06:23.630Z,2.80
2022-09-07T17:10:25.450Z,2.70
2022-09-07T17:14:29.590Z,3.50
2022-09-07T17:22:53.525Z,2.30
2022-09-07T17:26:55.396Z,2.28
2022-09-07T17:31:07.040Z,1.95
2022-09-07T17:35:21.779Z,2.28
2022-09-07T17:39:23.752Z,2.40
2022-09-07T17:43:45.305Z,2.47
2022-09-07T17:47:50.697Z,2.20
2022-09-07T17:51:52.442Z,2.17
2022-09-07T17:55:54.205Z,1.90
2022-09-07T18:00:12.401Z,2.15
2022-09-07T18:04:14.641Z,2.47
2022-09-07T18:08:16.352Z,2.17
2022-09-07T18:12:18.056Z,2.40
2022-09-07T18:16:30.665Z,2.65
2022-09-07T18:20:33.558Z,2.72
2022-09-07T18:24:36.878Z,2.53
2022-09-07T18:33:02.057Z,2.50
2022-09-07T18:37:04.639Z,2.60
2022-09-07T18:41:09.460Z,2.30
2022-09-07T18:49:33.102Z,2.67
2022-09-07T18:53:36.034Z,2.53
2022-09-07T18:57:38.134Z,2.80
2022-09-07T19:01:39.905Z,2.83
2022-09-07T19:05:56.958Z,3.17
2022-09-07T19:09:58.858Z,2.75
2022-09-07T19:14:05.459Z,2.83
2022-09-07T19:18:07.934Z,2.95
2022-09-07T19:22:09.557Z,3.22
2022-09-07T19:26:11.646Z,2.58
2022-09-07T19:30:13.941Z,2.92
2022-09-07T19:34:15.594Z,2.42
2022-09-07T19:38:18.406Z,2.40
2022-09-07T19:42:20.242Z,2.60
2022-09-07T19:46:24.944Z,2.47
2022-09-07T19:50:26.989Z,2.28
2022-09-07T19:54:29.056Z,2.70
2022-09-07T19:58:33.439Z,2.20
2022-09-07T20:02:35.116Z,2.88
2022-09-07T20:06:39.446Z,2.90
2022-09-07T20:10:42.570Z,3.25
2022-09-07T20:14:44.727Z,2.78
2022-09-07T20:18:46.799Z,3.03
2022-09-07T20:22:48.508Z,3.20
2022-09-07T20:26:50.247Z,3.80
2022-09-07T20:30:52.648Z,3.55
2022-09-07T20:34:54.609Z,2.92
2022-09-07T20:38:56.768Z,3.70
2022-09-07T20:42:58.937Z,3.10
2022-09-07T20:47:00.948Z,3.05
2022-09-07T20:51:04.290Z,2.63
2022-09-07T20:55:06.264Z,3.10
2022-09-07T20:59:08.021Z,2.95
2022-09-07T21:03:10.458Z,3.15
2022-09-07T21:07:12.112Z,2.92
2022-09-07T21:11:19.630Z,3.13
2022-09-07T21:15:21.302Z,3.10
2022-09-07T21:19:23.034Z,3.10
2022-09-07T21:23:24.673Z,3.20
2022-09-07T21:27:26.358Z,3.30
2022-09-07T21:31:31.007Z,3.00
2022-09-07T21:35:33.753Z,3.10
2022-09-07T21:39:35.429Z,3.53
2022-09-07T21:43:37.432Z,2.58
2022-09-07T21:47:39.141Z,3.28
2022-09-07T21:51:40.832Z,3.33
2022-09-07T21:55:42.758Z,3.90
2022-09-07T21:59:44.441Z,3.30
2022-09-07T22:03:48.218Z,4.00
2022-09-07T22:07:49.918Z,2.97
2022-09-07T22:11:54.017Z,2.65
2022-09-07T22:15:55.678Z,2.08
2022-09-07T22:19:57.339Z,2.47
2022-09-07T22:24:01.671Z,2.58
2022-09-07T22:28:04.875Z,2.58
2022-09-07T22:32:06.553Z,1.92
2022-09-07T22:36:18.768Z,2.20
2022-09-07T22:40:20.409Z,2.28
2022-09-07T22:44:22.371Z,2.80
2022-09-07T22:48:24.243Z,1.92
2022-09-07T22:52:26.155Z,2.05
2022-09-07T22:56:31.221Z,2.20
2022-09-07T23:00:36.488Z,2.03
2022-09-07T23:04:39.072Z,1.80
2022-09-07T23:08:41.024Z,2.10
2022-09-07T23:12:42.691Z,1.92
2022-09-07T23:16:44.935Z,2.30
2022-09-07T23:20:47.905Z,2.45
2022-09-07T23:24:49.655Z,2.45
2022-09-07T23:28:56.908Z,2.90
2022-09-07T23:32:58.696Z,2.88
2022-09-07T23:37:00.433Z,3.42
2022-09-07T23:41:02.673Z,3.17
2022-09-07T23:45:05.805Z,3.08
2022-09-07T23:49:10.502Z,3.13
2022-09-07T23:53:12.912Z,2.72
2022-09-07T23:57:14.701Z,3.00
